sensor_id;sensor_type;location;lat;lon;timestamp;pressure;altitude;pressure_sealevel;temperature;humidity
67803;BME280;54601;51.378;-1.342;2022-11-20T00:01:11;99727.21;;;19.40;31.09
67803;BME280;54601;51.378;-1.342;2022-11-20T00:03:34;99722.25;;;19.36;31.11
67803;BME280;54601;51.378;-1.342;2022-11-20T00:06:00;99717.65;;;19.28;31.25
67803;BME280;54601;51.378;-1.342;2022-11-20T00:08:24;99709.70;;;19.28;31.24
67803;BME280;54601;51.378;-1.342;2022-11-20T00:10:49;99709.18;;;19.56;31.18
67803;BME280;54601;51.378;-1.342;2022-11-20T00:13:14;99711.92;;;19.26;31.20
67803;BME280;54601;51.378;-1.342;2022-11-20T00:15:39;99712.03;;;19.57;31.19
67803;BME280;54601;51.378;-1.342;2022-11-20T00:18:04;99713.88;;;19.32;31.14
67803;BME280;54601;51.378;-1.342;2022-11-20T00:20:29;99712.45;;;19.83;31.19
67803;BME280;54601;51.378;-1.342;2022-11-20T00:22:54;99709.58;;;19.56;31.15
67803;BME280;54601;51.378;-1.342;2022-11-20T00:25:20;99710.05;;;19.57;31.17
67803;BME280;54601;51.378;-1.342;2022-11-20T00:27:45;99716.35;;;19.63;31.14
67803;BME280;54601;51.378;-1.342;2022-11-20T00:30:10;99714.52;;;19.33;31.14
67803;BME280;54601;51.378;-1.342;2022-11-20T00:32:35;99711.14;;;19.78;31.23
67803;BME280;54601;51.378;-1.342;2022-11-20T00:35:00;99706.68;;;19.60;31.14
67803;BME280;54601;51.378;-1.342;2022-11-20T00:37:25;99705.27;;;19.36;31.17
67803;BME280;54601;51.378;-1.342;2022-11-20T00:39:50;99700.94;;;19.60;31.12
67803;BME280;54601;51.378;-1.342;2022-11-20T00:42:15;99692.24;;;19.29;31.16
67803;BME280;54601;51.378;-1.342;2022-11-20T00:44:40;99692.99;;;19.50;31.29
67803;BME280;54601;51.378;-1.342;2022-11-20T00:47:05;99689.41;;;19.74;31.23
67803;BME280;54601;51.378;-1.342;2022-11-20T00:49:30;99685.40;;;19.57;31.17
67803;BME280;54601;51.378;-1.342;2022-11-20T00:51:55;99683.37;;;19.26;31.23
67803;BME280;54601;51.378;-1.342;2022-11-20T00:54:20;99682.72;;;19.32;31.19
67803;BME280;54601;51.378;-1.342;2022-11-20T00:56:45;99684.34;;;19.73;31.27
67803;BME280;54601;51.378;-1.342;2022-11-20T00:59:11;99682.38;;;19.26;31.20
67803;BME280;54601;51.378;-1.342;2022-11-20T01:01:36;99682.02;;;19.24;31.25
67803;BME280;54601;51.378;-1.342;2022-11-20T01:04:01;99681.67;;;19.22;31.29
67803;BME280;54601;51.378;-1.342;2022-11-20T01:06:28;99678.07;;;19.46;31.31
67803;BME280;54601;51.378;-1.342;2022-11-20T01:08:53;99673.66;;;19.20;31.27
67803;BME280;54601;51.378;-1.342;2022-11-20T01:11:18;99669.60;;;19.51;31.24
67803;BME280;54601;51.378;-1.342;2022-11-20T01:13:42;99664.72;;;19.20;31.29
67803;BME280;54601;51.378;-1.342;2022-11-20T01:16:08;99662.23;;;19.63;31.34
67803;BME280;54601;51.378;-1.342;2022-11-20T01:18:31;99658.72;;;19.48;31.36
67803;BME280;54601;51.378;-1.342;2022-11-20T01:21:00;99657.13;;;19.51;31.33
67803;BME280;54601;51.378;-1.342;2022-11-20T01:23:21;99655.25;;;19.68;31.34
67803;BME280;54601;51.378;-1.342;2022-11-20T01:25:46;99649.10;;;19.48;31.31
67803;BME280;54601;51.378;-1.342;2022-11-20T01:28:11;99643.59;;;19.43;31.39
67803;BME280;54601;51.378;-1.342;2022-11-20T01:30:36;99635.06;;;19.20;31.36
67803;BME280;54601;51.378;-1.342;2022-11-20T01:33:01;99634.31;;;19.21;31.32
67803;BME280;54601;51.378;-1.342;2022-11-20T01:35:26;99632.31;;;19.43;31.34
67803;BME280;54601;51.378;-1.342;2022-11-20T01:37:51;99622.41;;;19.42;31.35
67803;BME280;54601;51.378;-1.342;2022-11-20T01:40:16;99618.98;;;19.65;31.36
67803;BME280;54601;51.378;-1.342;2022-11-20T01:42:46;99615.59;;;19.06;31.47
67803;BME280;54601;51.378;-1.342;2022-11-20T01:47:34;99616.34;;;19.53;31.54
67803;BME280;54601;51.378;-1.342;2022-11-20T01:49:59;99606.45;;;19.58;31.50
67803;BME280;54601;51.378;-1.342;2022-11-20T01:52:24;99600.86;;;19.40;31.42
67803;BME280;54601;51.378;-1.342;2022-11-20T01:54:49;99595.61;;;19.27;31.26
67803;BME280;54601;51.378;-1.342;2022-11-20T01:57:12;99591.92;;;19.21;31.30
67803;BME280;54601;51.378;-1.342;2022-11-20T01:59:39;99589.16;;;19.39;31.42
67803;BME280;54601;51.378;-1.342;2022-11-20T02:02:02;99588.70;;;19.41;31.34
67803;BME280;54601;51.378;-1.342;2022-11-20T02:04:27;99589.17;;;19.59;31.47
67803;BME280;54601;51.378;-1.342;2022-11-20T02:06:57;99588.98;;;19.10;31.47
67803;BME280;54601;51.378;-1.342;2022-11-20T02:09:17;99585.89;;;19.05;31.52
67803;BME280;54601;51.378;-1.342;2022-11-20T02:11:43;99584.25;;;19.09;31.48
67803;BME280;54601;51.378;-1.342;2022-11-20T02:14:08;99581.31;;;19.40;31.47
67803;BME280;54601;51.378;-1.342;2022-11-20T02:16:36;99572.70;;;19.35;31.48
67803;BME280;54601;51.378;-1.342;2022-11-20T02:19:00;99567.09;;;19.32;31.53
67803;BME280;54601;51.378;-1.342;2022-11-20T02:21:30;99561.13;;;19.45;31.68
67803;BME280;54601;51.378;-1.342;2022-11-20T02:23:57;99552.83;;;19.58;31.49
67803;BME280;54601;51.378;-1.342;2022-11-20T02:26:14;99551.19;;;19.58;31.53
67803;BME280;54601;51.378;-1.342;2022-11-20T02:28:39;99550.08;;;19.41;31.46
67803;BME280;54601;51.378;-1.342;2022-11-20T02:31:03;99547.15;;;19.51;31.57
67803;BME280;54601;51.378;-1.342;2022-11-20T02:33:28;99547.26;;;19.56;31.51
67803;BME280;54601;51.378;-1.342;2022-11-20T02:35:53;99542.10;;;19.27;31.62
67803;BME280;54601;51.378;-1.342;2022-11-20T02:38:19;99537.20;;;19.57;31.50
67803;BME280;54601;51.378;-1.342;2022-11-20T02:40:44;99530.31;;;19.38;31.46
67803;BME280;54601;51.378;-1.342;2022-11-20T02:43:09;99522.90;;;19.38;31.39
67803;BME280;54601;51.378;-1.342;2022-11-20T02:45:34;99521.76;;;19.04;31.49
67803;BME280;54601;51.378;-1.342;2022-11-20T02:47:59;99516.65;;;19.34;31.51
67803;BME280;54601;51.378;-1.342;2022-11-20T02:50:25;99509.60;;;19.22;31.61
67803;BME280;54601;51.378;-1.342;2022-11-20T02:52:49;99507.41;;;18.92;31.63
67803;BME280;54601;51.378;-1.342;2022-11-20T02:55:14;99503.90;;;19.16;31.67
67803;BME280;54601;51.378;-1.342;2022-11-20T02:57:39;99500.81;;;19.29;31.87
67803;BME280;54601;51.378;-1.342;2022-11-20T03:00:06;99489.25;;;19.44;31.63
67803;BME280;54601;51.378;-1.342;2022-11-20T03:02:30;99487.29;;;19.51;31.57
67803;BME280;54601;51.378;-1.342;2022-11-20T03:04:55;99483.52;;;19.53;31.52
67803;BME280;54601;51.378;-1.342;2022-11-20T03:07:20;99477.67;;;19.46;31.64
67803;BME280;54601;51.378;-1.342;2022-11-20T03:09:45;99471.93;;;19.40;31.72
67803;BME280;54601;51.378;-1.342;2022-11-20T03:12:10;99470.18;;;19.38;31.78
67803;BME280;54601;51.378;-1.342;2022-11-20T03:14:35;99465.41;;;19.20;31.78
67803;BME280;54601;51.378;-1.342;2022-11-20T03:17:00;99460.12;;;19.38;31.77
67803;BME280;54601;51.378;-1.342;2022-11-20T03:19:25;99453.43;;;19.45;31.79
67803;BME280;54601;51.378;-1.342;2022-11-20T03:21:50;99451.60;;;18.92;31.82
67803;BME280;54601;51.378;-1.342;2022-11-20T03:24:16;99445.68;;;19.39;31.86
67803;BME280;54601;51.378;-1.342;2022-11-20T03:26:41;99443.41;;;19.17;31.88
67803;BME280;54601;51.378;-1.342;2022-11-20T03:29:06;99440.28;;;19.48;31.83
67803;BME280;54601;51.378;-1.342;2022-11-20T03:31:33;99439.51;;;19.14;31.99
67803;BME280;54601;51.378;-1.342;2022-11-20T03:33:57;99439.63;;;19.19;31.95
67803;BME280;54601;51.378;-1.342;2022-11-20T03:36:22;99437.69;;;19.22;31.94
67803;BME280;54601;51.378;-1.342;2022-11-20T03:38:47;99426.53;;;19.41;31.97
67803;BME280;54601;51.378;-1.342;2022-11-20T03:41:13;99421.88;;;19.53;31.90
67803;BME280;54601;51.378;-1.342;2022-11-20T03:43:37;99410.92;;;19.51;31.95
67803;BME280;54601;51.378;-1.342;2022-11-20T03:46:02;99400.10;;;19.26;31.98
67803;BME280;54601;51.378;-1.342;2022-11-20T03:48:27;99393.89;;;19.33;31.88
67803;BME280;54601;51.378;-1.342;2022-11-20T03:50:52;99394.82;;;19.01;32.01
67803;BME280;54601;51.378;-1.342;2022-11-20T03:53:17;99395.86;;;19.03;31.99
67803;BME280;54601;51.378;-1.342;2022-11-20T03:55:42;99393.33;;;19.26;32.04
67803;BME280;54601;51.378;-1.342;2022-11-20T03:58:07;99392.57;;;19.17;32.18
67803;BME280;54601;51.378;-1.342;2022-11-20T04:00:32;99392.10;;;19.43;32.19
67803;BME280;54601;51.378;-1.342;2022-11-20T04:02:58;99389.94;;;19.22;32.20
67803;BME280;54601;51.378;-1.342;2022-11-20T04:05:22;99382.02;;;19.02;32.07
67803;BME280;54601;51.378;-1.342;2022-11-20T04:07:47;99380.03;;;19.02;32.16
67803;BME280;54601;51.378;-1.342;2022-11-20T04:10:12;99376.63;;;19.47;32.15
67803;BME280;54601;51.378;-1.342;2022-11-20T04:12:37;99374.82;;;19.49;32.16
67803;BME280;54601;51.378;-1.342;2022-11-20T04:15:03;99368.17;;;19.50;32.20
67803;BME280;54601;51.378;-1.342;2022-11-20T04:17:28;99361.90;;;19.42;32.35
67803;BME280;54601;51.378;-1.342;2022-11-20T04:19:53;99369.84;;;18.98;32.26
67803;BME280;54601;51.378;-1.342;2022-11-20T04:22:18;99357.82;;;19.29;32.26
67803;BME280;54601;51.378;-1.342;2022-11-20T04:24:43;99351.44;;;18.91;32.37
67803;BME280;54601;51.378;-1.342;2022-11-20T04:27:08;99355.15;;;18.89;32.45
67803;BME280;54601;51.378;-1.342;2022-11-20T04:29:33;99361.05;;;19.50;32.29
67803;BME280;54601;51.378;-1.342;2022-11-20T04:31:58;99360.47;;;19.46;32.36
67803;BME280;54601;51.378;-1.342;2022-11-20T04:34:23;99352.21;;;18.95;32.38
67803;BME280;54601;51.378;-1.342;2022-11-20T04:36:48;99346.64;;;19.14;32.52
67803;BME280;54601;51.378;-1.342;2022-11-20T04:39:14;99336.61;;;19.46;32.39
67803;BME280;54601;51.378;-1.342;2022-11-20T04:41:38;99328.82;;;18.96;32.45
67803;BME280;54601;51.378;-1.342;2022-11-20T04:44:05;99321.27;;;19.29;32.40
67803;BME280;54601;51.378;-1.342;2022-11-20T04:46:29;99319.49;;;19.00;32.43
67803;BME280;54601;51.378;-1.342;2022-11-20T04:48:54;99320.52;;;19.53;32.35
67803;BME280;54601;51.378;-1.342;2022-11-20T04:51:19;99323.67;;;19.29;32.43
67803;BME280;54601;51.378;-1.342;2022-11-20T04:53:44;99325.64;;;18.97;32.54
67803;BME280;54601;51.378;-1.342;2022-11-20T04:56:11;99334.20;;;19.53;32.42
67803;BME280;54601;51.378;-1.342;2022-11-20T04:58:34;99339.25;;;19.02;32.48
67803;BME280;54601;51.378;-1.342;2022-11-20T05:01:03;99335.21;;;19.51;32.48
67803;BME280;54601;51.378;-1.342;2022-11-20T05:03:24;99328.13;;;19.57;32.46
67803;BME280;54601;51.378;-1.342;2022-11-20T05:05:49;99328.07;;;19.57;32.38
67803;BME280;54601;51.378;-1.342;2022-11-20T05:08:14;99326.44;;;19.51;32.53
67803;BME280;54601;51.378;-1.342;2022-11-20T05:10:39;99332.73;;;19.53;32.50
67803;BME280;54601;51.378;-1.342;2022-11-20T05:13:04;99329.84;;;19.17;32.69
67803;BME280;54601;51.378;-1.342;2022-11-20T05:15:29;99328.68;;;19.50;32.57
67803;BME280;54601;51.378;-1.342;2022-11-20T05:17:54;99321.92;;;19.04;32.53
67803;BME280;54601;51.378;-1.342;2022-11-20T05:20:20;99322.01;;;19.52;32.63
67803;BME280;54601;51.378;-1.342;2022-11-20T05:22:45;99318.14;;;19.01;32.57
67803;BME280;54601;51.378;-1.342;2022-11-20T05:25:10;99320.53;;;18.98;32.66
67803;BME280;54601;51.378;-1.342;2022-11-20T05:27:35;99330.41;;;19.61;32.49
67803;BME280;54601;51.378;-1.342;2022-11-20T05:30:00;99343.60;;;19.46;32.75
67803;BME280;54601;51.378;-1.342;2022-11-20T05:32:25;99340.45;;;19.49;32.67
67803;BME280;54601;51.378;-1.342;2022-11-20T05:34:50;99328.63;;;19.10;32.56
67803;BME280;54601;51.378;-1.342;2022-11-20T05:37:15;99326.94;;;19.35;32.59
67803;BME280;54601;51.378;-1.342;2022-11-20T05:39:40;99329.13;;;19.36;32.60
67803;BME280;54601;51.378;-1.342;2022-11-20T05:42:05;99329.08;;;19.52;32.67
67803;BME280;54601;51.378;-1.342;2022-11-20T05:44:30;99333.12;;;19.29;32.68
67803;BME280;54601;51.378;-1.342;2022-11-20T05:46:55;99337.58;;;19.44;32.76
67803;BME280;54601;51.378;-1.342;2022-11-20T05:49:20;99336.49;;;19.28;32.68
67803;BME280;54601;51.378;-1.342;2022-11-20T05:51:45;99338.53;;;19.44;32.79
67803;BME280;54601;51.378;-1.342;2022-11-20T05:54:10;99332.95;;;19.26;32.71
67803;BME280;54601;51.378;-1.342;2022-11-20T05:56:36;99326.80;;;19.21;32.79
67803;BME280;54601;51.378;-1.342;2022-11-20T05:59:01;99327.20;;;19.47;32.76
67803;BME280;54601;51.378;-1.342;2022-11-20T06:01:26;99338.85;;;19.19;32.82
67803;BME280;54601;51.378;-1.342;2022-11-20T06:03:52;99349.07;;;19.42;32.76
67803;BME280;54601;51.378;-1.342;2022-11-20T06:06:17;99356.36;;;18.99;32.73
67803;BME280;54601;51.378;-1.342;2022-11-20T06:08:42;99361.08;;;19.16;32.88
67803;BME280;54601;51.378;-1.342;2022-11-20T06:11:07;99353.64;;;18.83;32.94
67803;BME280;54601;51.378;-1.342;2022-11-20T06:13:31;99355.54;;;19.37;32.86
67803;BME280;54601;51.378;-1.342;2022-11-20T06:15:56;99354.84;;;19.36;32.91
67803;BME280;54601;51.378;-1.342;2022-11-20T06:18:21;99350.85;;;19.37;32.88
67803;BME280;54601;51.378;-1.342;2022-11-20T06:20:47;99346.12;;;18.92;32.85
67803;BME280;54601;51.378;-1.342;2022-11-20T06:23:13;99338.27;;;19.16;32.90
67803;BME280;54601;51.378;-1.342;2022-11-20T06:25:37;99334.72;;;19.40;32.93
67803;BME280;54601;51.378;-1.342;2022-11-20T06:28:02;99333.64;;;19.39;32.86
67803;BME280;54601;51.378;-1.342;2022-11-20T06:30:27;99339.85;;;19.13;32.93
67803;BME280;54601;51.378;-1.342;2022-11-20T06:32:52;99339.28;;;19.07;33.04
67803;BME280;54601;51.378;-1.342;2022-11-20T06:35:17;99336.08;;;18.94;32.90
67803;BME280;54601;51.378;-1.342;2022-11-20T06:37:42;99327.52;;;19.23;32.79
67803;BME280;54601;51.378;-1.342;2022-11-20T06:40:09;99328.85;;;19.39;32.94
67803;BME280;54601;51.378;-1.342;2022-11-20T06:42:32;99332.56;;;19.18;32.84
67803;BME280;54601;51.378;-1.342;2022-11-20T06:44:57;99333.88;;;19.26;32.83
67803;BME280;54601;51.378;-1.342;2022-11-20T06:47:23;99337.57;;;19.16;32.96
67803;BME280;54601;51.378;-1.342;2022-11-20T06:49:48;99336.77;;;19.36;32.98
67803;BME280;54601;51.378;-1.342;2022-11-20T06:52:13;99341.38;;;18.84;32.97
67803;BME280;54601;51.378;-1.342;2022-11-20T06:54:38;99342.81;;;19.29;31.89
67803;BME280;54601;51.378;-1.342;2022-11-20T06:57:03;99346.18;;;19.51;32.18
67803;BME280;54601;51.378;-1.342;2022-11-20T06:59:28;99346.72;;;19.50;32.51
67803;BME280;54601;51.378;-1.342;2022-11-20T07:01:53;99347.71;;;19.62;32.68
67803;BME280;54601;51.378;-1.342;2022-11-20T07:04:18;99352.61;;;19.03;32.78
67803;BME280;54601;51.378;-1.342;2022-11-20T07:06:43;99353.18;;;19.47;32.85
67803;BME280;54601;51.378;-1.342;2022-11-20T07:09:09;99353.38;;;18.96;32.91
67803;BME280;54601;51.378;-1.342;2022-11-20T07:11:34;99356.06;;;19.23;32.94
67803;BME280;54601;51.378;-1.342;2022-11-20T07:13:59;99357.96;;;19.42;32.96
67803;BME280;54601;51.378;-1.342;2022-11-20T07:16:24;99358.12;;;19.14;33.00
67803;BME280;54601;51.378;-1.342;2022-11-20T07:18:49;99354.66;;;19.40;33.03
67803;BME280;54601;51.378;-1.342;2022-11-20T07:21:14;99356.83;;;19.19;32.96
67803;BME280;54601;51.378;-1.342;2022-11-20T07:23:39;99356.89;;;19.44;32.95
67803;BME280;54601;51.378;-1.342;2022-11-20T07:26:04;99353.27;;;19.41;33.03
67803;BME280;54601;51.378;-1.342;2022-11-20T07:28:29;99348.80;;;19.17;33.11
67803;BME280;54601;51.378;-1.342;2022-11-20T07:30:54;99348.50;;;19.43;33.03
67803;BME280;54601;51.378;-1.342;2022-11-20T07:33:20;99345.95;;;19.18;33.12
67803;BME280;54601;51.378;-1.342;2022-11-20T07:35:44;99346.70;;;19.43;33.12
67803;BME280;54601;51.378;-1.342;2022-11-20T07:38:09;99351.95;;;19.25;33.09
67803;BME280;54601;51.378;-1.342;2022-11-20T07:40:34;99358.61;;;19.07;32.94
67803;BME280;54601;51.378;-1.342;2022-11-20T07:42:59;99365.17;;;19.48;33.06
67803;BME280;54601;51.378;-1.342;2022-11-20T07:45:25;99370.25;;;18.99;33.08
67803;BME280;54601;51.378;-1.342;2022-11-20T07:47:50;99374.55;;;19.50;33.10
67803;BME280;54601;51.378;-1.342;2022-11-20T07:50:15;99387.81;;;19.38;33.22
67803;BME280;54601;51.378;-1.342;2022-11-20T07:52:40;99395.39;;;19.27;33.14
67803;BME280;54601;51.378;-1.342;2022-11-20T07:55:06;99399.23;;;19.24;33.22
67803;BME280;54601;51.378;-1.342;2022-11-20T07:57:30;99399.15;;;19.58;33.07
67803;BME280;54601;51.378;-1.342;2022-11-20T07:59:55;99407.04;;;19.05;33.14
67803;BME280;54601;51.378;-1.342;2022-11-20T08:02:20;99403.54;;;19.33;33.15
67803;BME280;54601;51.378;-1.342;2022-11-20T08:04:45;99393.41;;;19.10;33.14
67803;BME280;54601;51.378;-1.342;2022-11-20T08:07:10;99391.67;;;19.64;33.08
67803;BME280;54601;51.378;-1.342;2022-11-20T08:09:35;99394.80;;;19.01;33.33
67803;BME280;54601;51.378;-1.342;2022-11-20T08:12:00;99397.34;;;19.04;33.37
67803;BME280;54601;51.378;-1.342;2022-11-20T08:14:26;99392.70;;;19.07;33.29
67803;BME280;54601;51.378;-1.342;2022-11-20T08:16:51;99384.95;;;19.16;33.25
67803;BME280;54601;51.378;-1.342;2022-11-20T08:19:17;99386.63;;;19.66;33.22
67803;BME280;54601;51.378;-1.342;2022-11-20T08:21:41;99388.81;;;19.13;33.24
67803;BME280;54601;51.378;-1.342;2022-11-20T08:24:07;99387.70;;;19.67;33.24
67803;BME280;54601;51.378;-1.342;2022-11-20T08:26:31;99395.04;;;19.17;33.31
67803;BME280;54601;51.378;-1.342;2022-11-20T08:28:57;99402.70;;;19.24;33.21
67803;BME280;54601;51.378;-1.342;2022-11-20T08:31:22;99401.96;;;19.24;33.18
67803;BME280;54601;51.378;-1.342;2022-11-20T08:33:46;99403.64;;;19.51;33.22
67803;BME280;54601;51.378;-1.342;2022-11-20T08:36:11;99405.06;;;19.19;33.28
67803;BME280;54601;51.378;-1.342;2022-11-20T08:38:36;99403.86;;;19.21;33.25
67803;BME280;54601;51.378;-1.342;2022-11-20T08:41:03;99412.60;;;19.22;33.37
67803;BME280;54601;51.378;-1.342;2022-11-20T08:43:26;99424.40;;;19.41;33.12
67803;BME280;54601;51.378;-1.342;2022-11-20T08:45:52;99441.32;;;19.64;33.15
67803;BME280;54601;51.378;-1.342;2022-11-20T08:48:16;99451.07;;;19.60;33.17
67803;BME280;54601;51.378;-1.342;2022-11-20T08:50:42;99449.64;;;19.27;33.34
67803;BME280;54601;51.378;-1.342;2022-11-20T08:53:07;99452.63;;;19.72;33.39
67803;BME280;54601;51.378;-1.342;2022-11-20T08:55:32;99455.61;;;19.57;33.29
67803;BME280;54601;51.378;-1.342;2022-11-20T08:57:57;99453.80;;;19.66;33.17
67803;BME280;54601;51.378;-1.342;2022-11-20T09:00:22;99460.38;;;19.30;33.29
67803;BME280;54601;51.378;-1.342;2022-11-20T09:02:47;99460.71;;;19.48;33.11
67803;BME280;54601;51.378;-1.342;2022-11-20T09:05:12;99463.38;;;19.64;33.24
67803;BME280;54601;51.378;-1.342;2022-11-20T09:07:37;99464.46;;;19.35;33.29
67803;BME280;54601;51.378;-1.342;2022-11-20T09:10:02;99460.09;;;19.35;33.24
67803;BME280;54601;51.378;-1.342;2022-11-20T09:12:27;99465.50;;;19.85;33.28
67803;BME280;54601;51.378;-1.342;2022-11-20T09:14:52;99465.82;;;19.46;33.11
67803;BME280;54601;51.378;-1.342;2022-11-20T09:17:17;99463.89;;;19.49;33.11
67803;BME280;54601;51.378;-1.342;2022-11-20T09:19:42;99466.60;;;19.73;33.10
67803;BME280;54601;51.378;-1.342;2022-11-20T09:22:08;99465.62;;;19.37;33.27
67803;BME280;54601;51.378;-1.342;2022-11-20T09:24:32;99472.03;;;19.87;33.27
67803;BME280;54601;51.378;-1.342;2022-11-20T09:26:57;99476.81;;;19.74;33.18
67803;BME280;54601;51.378;-1.342;2022-11-20T09:29:23;99477.63;;;19.97;33.11
67803;BME280;54601;51.378;-1.342;2022-11-20T09:31:48;99474.11;;;19.51;33.06
67803;BME280;54601;51.378;-1.342;2022-11-20T09:34:13;99470.84;;;19.44;33.20
67803;BME280;54601;51.378;-1.342;2022-11-20T09:36:38;99469.58;;;19.41;33.32
67803;BME280;54601;51.378;-1.342;2022-11-20T09:39:03;99465.44;;;19.75;33.23
67803;BME280;54601;51.378;-1.342;2022-11-20T09:41:39;99466.88;;;19.45;33.40
67803;BME280;54601;51.378;-1.342;2022-11-20T09:44:00;99460.71;;;19.47;33.41
67803;BME280;54601;51.378;-1.342;2022-11-20T09:46:23;99458.53;;;19.61;33.15
67803;BME280;54601;51.378;-1.342;2022-11-20T09:48:52;99464.56;;;19.54;33.42
67803;BME280;54601;51.378;-1.342;2022-11-20T09:51:16;99465.53;;;19.61;33.54
67803;BME280;54601;51.378;-1.342;2022-11-20T09:53:37;99464.33;;;19.77;33.37
67803;BME280;54601;51.378;-1.342;2022-11-20T09:56:01;99466.20;;;20.00;33.16
67803;BME280;54601;51.378;-1.342;2022-11-20T09:58:28;99462.79;;;20.06;32.81
67803;BME280;54601;51.378;-1.342;2022-11-20T10:00:49;99464.92;;;20.27;32.83
67803;BME280;54601;51.378;-1.342;2022-11-20T10:03:18;99466.86;;;20.39;32.73
67803;BME280;54601;51.378;-1.342;2022-11-20T10:05:41;99467.41;;;20.11;32.83
67803;BME280;54601;51.378;-1.342;2022-11-20T10:08:10;99469.84;;;20.40;32.76
67803;BME280;54601;51.378;-1.342;2022-11-20T10:10:34;99467.35;;;20.12;32.82
67803;BME280;54601;51.378;-1.342;2022-11-20T10:13:05;99467.66;;;20.21;33.05
67803;BME280;54601;51.378;-1.342;2022-11-20T10:15:27;99467.49;;;20.16;32.84
67803;BME280;54601;51.378;-1.342;2022-11-20T10:17:58;99471.27;;;19.89;32.89
67803;BME280;54601;51.378;-1.342;2022-11-20T10:20:16;99470.98;;;20.25;32.81
67803;BME280;54601;51.378;-1.342;2022-11-20T10:22:42;99469.98;;;20.45;32.84
67803;BME280;54601;51.378;-1.342;2022-11-20T10:25:05;99471.15;;;20.50;32.81
67803;BME280;54601;51.378;-1.342;2022-11-20T10:29:59;99472.51;;;20.58;32.72
67803;BME280;54601;51.378;-1.342;2022-11-20T10:32:20;99470.25;;;20.29;32.83
67803;BME280;54601;51.378;-1.342;2022-11-20T10:34:48;99469.94;;;20.56;32.78
67803;BME280;54601;51.378;-1.342;2022-11-20T10:37:12;99467.38;;;20.40;32.71
67803;BME280;54601;51.378;-1.342;2022-11-20T10:39:38;99468.63;;;20.31;32.81
67803;BME280;54601;51.378;-1.342;2022-11-20T10:42:01;99464.74;;;20.44;32.64
67803;BME280;54601;51.378;-1.342;2022-11-20T10:44:27;99466.94;;;20.67;32.63
67803;BME280;54601;51.378;-1.342;2022-11-20T10:46:52;99467.43;;;20.16;32.68
67803;BME280;54601;51.378;-1.342;2022-11-20T10:49:20;99470.11;;;20.52;32.56
67803;BME280;54601;51.378;-1.342;2022-11-20T10:51:56;99465.45;;;20.60;32.71
67803;BME280;54601;51.378;-1.342;2022-11-20T10:54:18;99461.81;;;20.74;32.56
67803;BME280;54601;51.378;-1.342;2022-11-20T10:56:39;99469.00;;;20.22;32.58
67803;BME280;54601;51.378;-1.342;2022-11-20T11:01:25;99466.20;;;20.22;32.56
67803;BME280;54601;51.378;-1.342;2022-11-20T11:03:51;99466.18;;;20.36;32.40
67803;BME280;54601;51.378;-1.342;2022-11-20T11:06:21;99468.29;;;20.24;32.47
67803;BME280;54601;51.378;-1.342;2022-11-20T11:08:43;99463.31;;;20.59;32.35
67803;BME280;54601;51.378;-1.342;2022-11-20T11:11:20;99460.08;;;20.60;32.25
67803;BME280;54601;51.378;-1.342;2022-11-20T11:13:32;99464.84;;;20.50;32.36
67803;BME280;54601;51.378;-1.342;2022-11-20T11:15:58;99463.68;;;20.53;32.35
67803;BME280;54601;51.378;-1.342;2022-11-20T11:18:24;99463.08;;;20.51;32.26
67803;BME280;54601;51.378;-1.342;2022-11-20T11:20:50;99459.45;;;20.53;32.21
67803;BME280;54601;51.378;-1.342;2022-11-20T11:23:26;99462.14;;;20.54;32.14
67803;BME280;54601;51.378;-1.342;2022-11-20T11:25:39;99461.78;;;20.52;32.17
67803;BME280;54601;51.378;-1.342;2022-11-20T11:30:40;99464.01;;;20.63;32.27
67803;BME280;54601;51.378;-1.342;2022-11-20T11:33:04;99464.07;;;20.38;32.30
67803;BME280;54601;51.378;-1.342;2022-11-20T11:35:24;99466.27;;;20.40;32.28
67803;BME280;54601;51.378;-1.342;2022-11-20T11:37:47;99470.38;;;20.75;32.10
67803;BME280;54601;51.378;-1.342;2022-11-20T11:40:13;99469.80;;;20.38;32.23
67803;BME280;54601;51.378;-1.342;2022-11-20T11:42:42;99474.02;;;20.16;32.14
67803;BME280;54601;51.378;-1.342;2022-11-20T11:45:06;99478.98;;;20.48;32.31
67803;BME280;54601;51.378;-1.342;2022-11-20T11:47:31;99477.14;;;20.32;32.20
67803;BME280;54601;51.378;-1.342;2022-11-20T11:50:07;99475.39;;;20.59;32.08
67803;BME280;54601;51.378;-1.342;2022-11-20T11:52:21;99468.08;;;20.37;32.16
67803;BME280;54601;51.378;-1.342;2022-11-20T11:54:47;99467.43;;;20.52;32.13
67803;BME280;54601;51.378;-1.342;2022-11-20T11:57:16;99460.92;;;20.72;31.86
67803;BME280;54601;51.378;-1.342;2022-11-20T11:59:41;99459.90;;;20.27;32.03
67803;BME280;54601;51.378;-1.342;2022-11-20T12:02:01;99456.19;;;20.36;31.96
67803;BME280;54601;51.378;-1.342;2022-11-20T12:04:38;99463.41;;;20.48;32.08
67803;BME280;54601;51.378;-1.342;2022-11-20T12:06:56;99469.34;;;20.24;32.10
67803;BME280;54601;51.378;-1.342;2022-11-20T12:09:14;99478.44;;;20.03;31.97
67803;BME280;54601;51.378;-1.342;2022-11-20T12:11:45;99484.34;;;20.48;32.01
67803;BME280;54601;51.378;-1.342;2022-11-20T12:14:11;99486.09;;;20.33;31.91
67803;BME280;54601;51.378;-1.342;2022-11-20T12:16:31;99479.88;;;20.55;31.85
67803;BME280;54601;51.378;-1.342;2022-11-20T12:18:54;99469.60;;;20.42;31.75
67803;BME280;54601;51.378;-1.342;2022-11-20T12:21:24;99469.98;;;20.29;31.90
67803;BME280;54601;51.378;-1.342;2022-11-20T12:23:51;99459.52;;;20.30;31.94
67803;BME280;54601;51.378;-1.342;2022-11-20T12:26:18;99455.75;;;20.09;31.83
67803;BME280;54601;51.378;-1.342;2022-11-20T12:28:44;99455.02;;;20.33;31.88
67803;BME280;54601;51.378;-1.342;2022-11-20T12:31:13;99453.62;;;20.36;31.81
67803;BME280;54601;51.378;-1.342;2022-11-20T12:33:38;99450.73;;;20.41;31.72
67803;BME280;54601;51.378;-1.342;2022-11-20T12:36:01;99451.54;;;20.56;31.84
67803;BME280;54601;51.378;-1.342;2022-11-20T12:38:26;99457.93;;;20.51;31.90
67803;BME280;54601;51.378;-1.342;2022-11-20T12:40:45;99461.74;;;20.46;31.89
67803;BME280;54601;51.378;-1.342;2022-11-20T12:43:11;99466.76;;;20.40;31.98
67803;BME280;54601;51.378;-1.342;2022-11-20T12:45:40;99466.20;;;20.34;32.02
67803;BME280;54601;51.378;-1.342;2022-11-20T12:48:08;99469.19;;;19.99;32.15